createdAt,value
2023-02-16T00:00:43.011Z,465.00
2023-02-16T00:01:43.054Z,464.00
2023-02-16T00:02:44.118Z,462.00
2023-02-16T00:03:44.139Z,463.00
2023-02-16T00:04:44.283Z,461.00
2023-02-16T00:05:44.284Z,459.00
2023-02-16T00:06:43.287Z,460.00
2023-02-16T00:07:44.231Z,461.00
2023-02-16T00:08:44.412Z,463.00
2023-02-16T00:09:43.412Z,462.00
2023-02-16T00:10:44.484Z,461.00
2023-02-16T00:11:44.321Z,459.00
2023-02-16T00:12:44.395Z,459.00
2023-02-16T00:13:44.387Z,460.00
2023-02-16T00:14:44.555Z,460.00
2023-02-16T00:15:44.748Z,460.00
2023-02-16T00:16:44.413Z,459.00
2023-02-16T00:17:44.430Z,460.00
2023-02-16T00:18:43.605Z,462.00
2023-02-16T00:19:44.826Z,462.00
2023-02-16T00:20:43.550Z,462.00
2023-02-16T00:21:44.577Z,461.00
2023-02-16T00:22:43.742Z,461.00
2023-02-16T00:23:44.733Z,460.00
2023-02-16T00:24:44.572Z,460.00
2023-02-16T00:25:43.588Z,461.00
2023-02-16T00:26:43.608Z,461.00
2023-02-16T00:27:43.649Z,462.00
2023-02-16T00:28:44.684Z,461.00
2023-02-16T00:29:45.933Z,459.00
2023-02-16T00:30:43.728Z,458.00
2023-02-16T00:31:44.903Z,458.00
2023-02-16T00:32:44.794Z,462.00
2023-02-16T00:33:44.775Z,464.00
2023-02-16T00:34:44.780Z,465.00
2023-02-16T00:35:44.861Z,465.00
2023-02-16T00:36:44.826Z,466.00
2023-02-16T00:37:44.847Z,464.00
2023-02-16T00:38:43.870Z,465.00
2023-02-16T00:39:44.919Z,465.00
2023-02-16T00:40:44.915Z,466.00
2023-02-16T00:41:44.927Z,464.00
2023-02-16T00:42:44.965Z,463.00
2023-02-16T00:43:44.980Z,461.00
2023-02-16T00:44:44.994Z,461.00
2023-02-16T00:45:44.063Z,462.00
2023-02-16T00:46:45.073Z,463.00
2023-02-16T00:47:44.072Z,462.00
2023-02-16T00:48:45.378Z,463.00
2023-02-16T00:49:45.137Z,463.00
2023-02-16T00:50:45.155Z,464.00
2023-02-16T00:51:45.165Z,464.00
2023-02-16T00:52:44.205Z,465.00
2023-02-16T00:53:44.216Z,462.00
2023-02-16T00:54:45.274Z,463.00
2023-02-16T00:55:45.668Z,465.00
2023-02-16T00:56:45.312Z,466.00
2023-02-16T00:57:45.608Z,468.00
2023-02-16T00:58:44.453Z,469.00
2023-02-16T00:59:45.393Z,470.00
2023-02-16T01:00:45.696Z,472.00
2023-02-16T01:01:45.523Z,472.00
2023-02-16T01:02:44.463Z,472.00
2023-02-16T01:03:45.901Z,472.00
2023-02-16T01:04:45.667Z,471.00
2023-02-16T01:05:45.700Z,473.00
2023-02-16T01:06:45.722Z,470.00
2023-02-16T01:07:45.759Z,469.00
2023-02-16T01:08:45.724Z,470.00
2023-02-16T01:09:45.941Z,471.00
2023-02-16T01:10:46.163Z,473.00
2023-02-16T01:11:45.813Z,474.00
2023-02-16T01:12:46.047Z,474.00
2023-02-16T01:13:45.753Z,474.00
2023-02-16T01:14:46.307Z,470.00
2023-02-16T01:15:45.814Z,469.00
2023-02-16T01:16:44.760Z,470.00
2023-02-16T01:17:45.802Z,468.00
2023-02-16T01:18:45.832Z,469.00
2023-02-16T01:19:45.873Z,469.00
2023-02-16T01:20:45.908Z,469.00
2023-02-16T01:21:44.936Z,470.00
2023-02-16T01:22:45.916Z,470.00
2023-02-16T01:23:46.020Z,469.00
2023-02-16T01:24:46.000Z,472.00
2023-02-16T01:25:46.004Z,472.00
2023-02-16T01:26:45.033Z,471.00
2023-02-16T01:27:45.063Z,471.00
2023-02-16T01:28:46.086Z,471.00
2023-02-16T01:29:46.141Z,470.00
2023-02-16T01:30:46.155Z,471.00
2023-02-16T01:31:45.344Z,469.00
2023-02-16T01:32:46.180Z,467.00
2023-02-16T01:33:46.240Z,469.00
2023-02-16T01:34:46.258Z,470.00
2023-02-16T01:35:45.341Z,468.00
2023-02-16T01:36:46.319Z,466.00
2023-02-16T01:37:46.324Z,465.00
2023-02-16T01:38:46.374Z,465.00
2023-02-16T01:39:45.393Z,465.00
2023-02-16T01:40:45.416Z,465.00
2023-02-16T01:41:46.432Z,463.00
2023-02-16T01:42:46.453Z,464.00
2023-02-16T01:43:45.513Z,463.00
2023-02-16T01:44:46.523Z,464.00
2023-02-16T01:45:46.554Z,463.00
2023-02-16T01:46:46.638Z,465.00
2023-02-16T01:47:46.619Z,465.00
2023-02-16T01:48:45.646Z,465.00
2023-02-16T01:49:46.704Z,465.00
2023-02-16T01:50:46.808Z,465.00
2023-02-16T01:51:46.743Z,466.00
2023-02-16T01:52:46.818Z,465.00
2023-02-16T01:53:46.806Z,463.00
2023-02-16T01:54:46.891Z,463.00
2023-02-16T01:55:46.904Z,461.00
2023-02-16T01:56:46.915Z,462.00
2023-02-16T01:57:46.974Z,462.00
2023-02-16T01:58:46.983Z,461.00
2023-02-16T01:59:45.999Z,462.00
2023-02-16T02:00:47.032Z,463.00
2023-02-16T02:01:47.148Z,463.00
2023-02-16T02:02:47.179Z,467.00
2023-02-16T02:03:47.147Z,464.00
2023-02-16T02:04:46.140Z,465.00
2023-02-16T02:05:46.165Z,467.00
2023-02-16T02:06:47.211Z,465.00
2023-02-16T02:07:47.277Z,464.00
2023-02-16T02:08:47.305Z,463.00
2023-02-16T02:09:47.314Z,462.00
2023-02-16T02:10:46.385Z,462.00
2023-02-16T02:11:46.365Z,463.00
2023-02-16T02:12:47.463Z,462.00
2023-02-16T02:13:46.461Z,463.00
2023-02-16T02:14:46.450Z,464.00
2023-02-16T02:15:47.526Z,465.00
2023-02-16T02:16:47.900Z,466.00
2023-02-16T02:17:47.626Z,468.00
2023-02-16T02:18:46.614Z,466.00
2023-02-16T02:19:47.728Z,467.00
2023-02-16T02:20:48.041Z,466.00
2023-02-16T02:21:47.763Z,469.00
2023-02-16T02:22:47.709Z,466.00
2023-02-16T02:23:47.161Z,466.00
2023-02-16T02:24:47.804Z,467.00
2023-02-16T02:25:47.997Z,470.00
2023-02-16T02:26:48.075Z,468.00
2023-02-16T02:27:48.104Z,468.00
2023-02-16T02:28:47.997Z,467.00
2023-02-16T02:29:46.950Z,464.00
2023-02-16T02:30:48.056Z,465.00
2023-02-16T02:31:48.117Z,465.00
2023-02-16T02:32:48.124Z,466.00
2023-02-16T02:33:48.469Z,466.00
2023-02-16T02:34:48.457Z,466.00
2023-02-16T02:35:48.160Z,466.00
2023-02-16T02:36:48.179Z,467.00
2023-02-16T02:37:48.201Z,466.00
2023-02-16T02:38:48.231Z,464.00
2023-02-16T02:39:48.257Z,463.00
2023-02-16T02:40:47.321Z,461.00
2023-02-16T02:41:48.329Z,461.00
2023-02-16T02:42:47.369Z,460.00
2023-02-16T02:43:47.465Z,459.00
2023-02-16T02:44:48.508Z,459.00
2023-02-16T02:45:47.484Z,460.00
2023-02-16T02:46:47.621Z,462.00
2023-02-16T02:47:47.545Z,462.00
2023-02-16T02:48:48.637Z,460.00
2023-02-16T02:49:48.621Z,459.00
2023-02-16T02:50:48.673Z,463.00
2023-02-16T02:51:48.805Z,462.00
2023-02-16T02:52:48.768Z,464.00
2023-02-16T02:53:48.765Z,465.00
2023-02-16T02:54:47.799Z,465.00
2023-02-16T02:55:48.879Z,462.00
2023-02-16T02:56:48.891Z,464.00
2023-02-16T02:57:47.911Z,465.00
2023-02-16T02:58:48.933Z,465.00
2023-02-16T02:59:49.014Z,464.00
2023-02-16T03:00:49.058Z,466.00
2023-02-16T03:01:49.100Z,465.00
2023-02-16T03:02:48.073Z,467.00
2023-02-16T03:03:49.131Z,466.00
2023-02-16T03:04:49.141Z,464.00
2023-02-16T03:05:48.190Z,465.00
2023-02-16T03:06:49.521Z,466.00
2023-02-16T03:07:48.309Z,467.00
2023-02-16T03:08:49.308Z,470.00
2023-02-16T03:09:49.333Z,470.00
2023-02-16T03:10:49.368Z,469.00
2023-02-16T03:11:49.399Z,466.00
2023-02-16T03:12:49.453Z,465.00
2023-02-16T03:13:48.491Z,463.00
2023-02-16T03:14:49.485Z,463.00
2023-02-16T03:15:49.560Z,462.00
2023-02-16T03:16:49.583Z,461.00
2023-02-16T03:17:49.609Z,462.00
2023-02-16T03:18:49.634Z,463.00
2023-02-16T03:19:48.665Z,464.00
2023-02-16T03:20:49.722Z,465.00
2023-02-16T03:21:49.788Z,465.00
2023-02-16T03:22:49.799Z,467.00
2023-02-16T03:23:49.820Z,467.00
2023-02-16T03:24:49.874Z,465.00
2023-02-16T03:25:48.898Z,461.00
2023-02-16T03:26:48.953Z,464.00
2023-02-16T03:27:49.948Z,464.00
2023-02-16T03:28:50.030Z,464.00
2023-02-16T03:29:50.087Z,462.00
2023-02-16T03:30:50.175Z,465.00
2023-02-16T03:31:50.150Z,466.00
2023-02-16T03:32:49.139Z,470.00
2023-02-16T03:33:50.169Z,468.00
2023-02-16T03:34:49.198Z,465.00
2023-02-16T03:35:50.243Z,467.00
2023-02-16T03:36:49.305Z,467.00
2023-02-16T03:37:50.304Z,466.00
2023-02-16T03:38:50.347Z,464.00
2023-02-16T03:39:50.394Z,465.00
2023-02-16T03:40:50.431Z,467.00
2023-02-16T03:41:49.450Z,468.00
2023-02-16T03:42:50.505Z,465.00
2023-02-16T03:43:50.529Z,465.00
2023-02-16T03:44:50.648Z,466.00
2023-02-16T03:45:49.806Z,464.00
2023-02-16T03:46:49.704Z,464.00
2023-02-16T03:47:50.697Z,463.00
2023-02-16T03:48:50.740Z,462.00
2023-02-16T03:49:49.779Z,461.00
2023-02-16T03:50:50.797Z,465.00
2023-02-16T03:51:50.857Z,469.00
2023-02-16T03:52:50.924Z,470.00
2023-02-16T03:53:50.938Z,469.00
2023-02-16T03:54:50.972Z,469.00
2023-02-16T03:55:51.025Z,469.00
2023-02-16T03:56:51.063Z,468.00
2023-02-16T03:57:51.081Z,468.00
2023-02-16T03:58:50.126Z,467.00
2023-02-16T03:59:50.181Z,468.00
2023-02-16T04:00:51.241Z,467.00
2023-02-16T04:01:50.348Z,466.00
2023-02-16T04:02:51.291Z,466.00
2023-02-16T04:03:51.382Z,467.00
2023-02-16T04:04:51.362Z,467.00
2023-02-16T04:05:50.432Z,465.00
2023-02-16T04:06:51.464Z,465.00
2023-02-16T04:07:50.494Z,464.00
2023-02-16T04:08:51.574Z,461.00
2023-02-16T04:09:51.574Z,461.00
2023-02-16T04:10:51.681Z,461.00
2023-02-16T04:11:51.735Z,460.00
2023-02-16T04:12:51.745Z,461.00
2023-02-16T04:13:51.762Z,464.00
2023-02-16T04:14:50.792Z,465.00
2023-02-16T04:15:51.868Z,467.00
2023-02-16T04:16:50.999Z,468.00
2023-02-16T04:17:51.049Z,467.00
2023-02-16T04:18:52.005Z,468.00
2023-02-16T04:19:51.043Z,469.00
2023-02-16T04:20:52.083Z,469.00
2023-02-16T04:21:52.160Z,468.00
2023-02-16T04:22:52.192Z,467.00
2023-02-16T04:23:51.234Z,466.00
2023-02-16T04:24:51.320Z,466.00
2023-02-16T04:25:52.326Z,465.00
2023-02-16T04:26:52.440Z,464.00
2023-02-16T04:27:52.431Z,464.00
2023-02-16T04:28:52.896Z,464.00
2023-02-16T04:29:52.905Z,467.00
2023-02-16T04:30:51.773Z,467.00
2023-02-16T04:31:53.022Z,467.00
2023-02-16T04:32:52.995Z,468.00
2023-02-16T04:33:52.903Z,466.00
2023-02-16T04:34:52.119Z,466.00
2023-02-16T04:35:52.841Z,467.00
2023-02-16T04:36:52.845Z,468.00
2023-02-16T04:37:53.016Z,467.00
2023-02-16T04:38:53.169Z,466.00
2023-02-16T04:39:52.056Z,465.00
2023-02-16T04:40:53.996Z,463.00
2023-02-16T04:41:52.270Z,463.00
2023-02-16T04:42:54.688Z,465.00
2023-02-16T04:43:53.392Z,464.00
2023-02-16T04:44:53.389Z,465.00
2023-02-16T04:45:53.222Z,465.00
2023-02-16T04:46:53.445Z,465.00
2023-02-16T04:47:53.528Z,467.00
2023-02-16T04:48:53.608Z,466.00
2023-02-16T04:49:53.637Z,467.00
2023-02-16T04:50:53.637Z,468.00
2023-02-16T04:51:53.679Z,468.00
2023-02-16T04:52:52.755Z,468.00
2023-02-16T04:53:52.764Z,469.00
2023-02-16T04:54:53.825Z,468.00
2023-02-16T04:55:52.898Z,468.00
2023-02-16T04:56:53.922Z,470.00
2023-02-16T04:57:52.982Z,471.00
2023-02-16T04:58:54.015Z,472.00
2023-02-16T04:59:54.054Z,474.00
2023-02-16T05:00:54.074Z,474.00
2023-02-16T05:01:55.186Z,471.00
2023-02-16T05:02:54.200Z,472.00
2023-02-16T05:03:54.655Z,474.00
2023-02-16T05:04:54.535Z,473.00
2023-02-16T05:05:53.532Z,473.00
2023-02-16T05:06:53.464Z,471.00
2023-02-16T05:07:54.512Z,469.00
2023-02-16T05:08:54.717Z,469.00
2023-02-16T05:09:54.792Z,469.00
2023-02-16T05:10:54.599Z,467.00
2023-02-16T05:11:53.986Z,467.00
2023-02-16T05:12:54.959Z,465.00
2023-02-16T05:13:54.755Z,463.00
2023-02-16T05:14:55.127Z,462.00
2023-02-16T05:15:53.882Z,462.00
2023-02-16T05:16:54.868Z,461.00
2023-02-16T05:17:54.924Z,463.00
2023-02-16T05:18:58.331Z,461.00
2023-02-16T05:19:55.021Z,462.00
2023-02-16T05:20:55.124Z,465.00
2023-02-16T05:21:54.954Z,464.00
2023-02-16T05:22:54.985Z,467.00
2023-02-16T05:23:54.939Z,469.00
2023-02-16T05:24:53.945Z,467.00
2023-02-16T05:25:54.906Z,470.00
2023-02-16T05:26:54.917Z,468.00
2023-02-16T05:27:54.952Z,467.00
2023-02-16T05:28:54.904Z,468.00
2023-02-16T05:29:54.938Z,471.00
2023-02-16T05:30:55.005Z,471.00
2023-02-16T05:31:54.062Z,470.00
2023-02-16T05:32:54.045Z,471.00
2023-02-16T05:33:55.101Z,471.00
2023-02-16T05:34:55.205Z,470.00
2023-02-16T05:35:55.197Z,468.00
2023-02-16T05:36:55.381Z,466.00
2023-02-16T05:37:55.336Z,467.00
2023-02-16T05:38:55.380Z,467.00
2023-02-16T05:39:55.447Z,467.00
2023-02-16T05:40:55.490Z,470.00
2023-02-16T05:41:54.556Z,471.00
2023-02-16T05:42:55.638Z,473.00
2023-02-16T05:43:55.672Z,474.00
2023-02-16T05:44:54.774Z,473.00
2023-02-16T05:45:54.802Z,474.00
2023-02-16T05:46:54.918Z,475.00
2023-02-16T05:47:54.878Z,475.00
2023-02-16T05:48:55.923Z,474.00
2023-02-16T05:49:56.007Z,475.00
2023-02-16T05:50:56.042Z,472.00
2023-02-16T05:51:55.091Z,471.00
2023-02-16T05:52:56.167Z,473.00
2023-02-16T05:53:56.371Z,473.00
2023-02-16T05:54:57.348Z,476.00
2023-02-16T05:55:57.699Z,478.00
2023-02-16T05:56:55.891Z,476.00
2023-02-16T05:57:58.286Z,477.00
2023-02-16T05:58:56.553Z,476.00
2023-02-16T05:59:56.672Z,476.00
2023-02-16T06:00:57.408Z,477.00
2023-02-16T06:01:56.501Z,478.00
2023-02-16T06:02:56.529Z,478.00
2023-02-16T06:03:56.562Z,478.00
2023-02-16T06:04:57.101Z,476.00
2023-02-16T06:05:56.448Z,476.00
2023-02-16T06:06:56.520Z,477.00
2023-02-16T06:07:56.589Z,477.00
2023-02-16T06:08:56.609Z,478.00
2023-02-16T06:09:56.549Z,478.00
2023-02-16T06:10:56.575Z,477.00
2023-02-16T06:11:56.564Z,476.00
2023-02-16T06:12:56.598Z,476.00
2023-02-16T06:13:56.650Z,477.00
2023-02-16T06:14:55.720Z,478.00
2023-02-16T06:15:56.863Z,478.00
2023-02-16T06:16:55.851Z,479.00
2023-02-16T06:17:56.842Z,479.00
2023-02-16T06:18:56.926Z,477.00
2023-02-16T06:19:55.914Z,477.00
2023-02-16T06:20:56.997Z,475.00
2023-02-16T06:21:57.040Z,475.00
2023-02-16T06:22:57.066Z,477.00
2023-02-16T06:23:57.142Z,477.00
2023-02-16T06:24:56.199Z,476.00
2023-02-16T06:25:56.226Z,478.00
2023-02-16T06:26:57.273Z,477.00
2023-02-16T06:27:57.363Z,478.00
2023-02-16T06:28:57.407Z,481.00
2023-02-16T06:29:57.530Z,482.00
2023-02-16T06:30:56.517Z,483.00
2023-02-16T06:31:56.697Z,484.00
2023-02-16T06:32:57.608Z,485.00
2023-02-16T06:33:57.638Z,482.00
2023-02-16T06:34:56.689Z,481.00
2023-02-16T06:35:57.758Z,479.00
2023-02-16T06:36:56.781Z,478.00
2023-02-16T06:37:57.837Z,479.00
2023-02-16T06:38:57.913Z,481.00
2023-02-16T06:39:56.934Z,480.00
2023-02-16T06:40:58.137Z,477.00
2023-02-16T06:41:57.045Z,478.00
2023-02-16T06:42:58.121Z,479.00
2023-02-16T06:43:57.143Z,480.00
2023-02-16T06:44:58.271Z,481.00
2023-02-16T06:45:57.299Z,481.00
2023-02-16T06:46:57.482Z,482.00
2023-02-16T06:47:57.408Z,481.00
2023-02-16T06:48:58.422Z,482.00
2023-02-16T06:49:58.470Z,484.00
2023-02-16T06:50:57.535Z,480.00
2023-02-16T06:51:57.604Z,481.00
2023-02-16T06:52:57.636Z,480.00
2023-02-16T06:53:57.697Z,480.00
2023-02-16T06:54:57.736Z,480.00
2023-02-16T06:55:58.789Z,480.00
2023-02-16T06:56:58.903Z,482.00
2023-02-16T06:57:58.896Z,481.00
2023-02-16T06:58:58.952Z,480.00
2023-02-16T06:59:58.054Z,480.00
2023-02-16T07:00:58.134Z,478.00
2023-02-16T07:01:59.118Z,479.00
2023-02-16T07:02:59.187Z,480.00
2023-02-16T07:03:59.281Z,483.00
2023-02-16T07:04:59.285Z,482.00
2023-02-16T07:05:59.347Z,483.00
2023-02-16T07:06:59.428Z,483.00
2023-02-16T07:07:59.436Z,483.00
2023-02-16T07:08:59.546Z,483.00
2023-02-16T07:09:59.574Z,483.00
2023-02-16T07:10:59.634Z,484.00
2023-02-16T07:11:58.906Z,482.00
2023-02-16T07:13:00.933Z,481.00
2023-02-16T07:13:59.836Z,481.00
2023-02-16T07:15:00.427Z,480.00
2023-02-16T07:16:00.086Z,479.00
2023-02-16T07:17:00.248Z,477.00
2023-02-16T07:18:00.222Z,478.00
2023-02-16T07:19:00.471Z,477.00
2023-02-16T07:20:00.420Z,476.00
2023-02-16T07:20:59.383Z,475.00
2023-02-16T07:22:00.552Z,475.00
2023-02-16T07:22:59.417Z,477.00
2023-02-16T07:24:00.502Z,476.00
2023-02-16T07:24:59.567Z,476.00
2023-02-16T07:26:00.634Z,477.00
2023-02-16T07:27:00.621Z,477.00
2023-02-16T07:28:00.805Z,477.00
2023-02-16T07:29:01.066Z,477.00
2023-02-16T07:30:00.898Z,478.00
2023-02-16T07:31:00.889Z,479.00
2023-02-16T07:32:00.023Z,481.00
2023-02-16T07:33:00.977Z,481.00
2023-02-16T07:34:00.018Z,480.00
2023-02-16T07:35:01.070Z,480.00
2023-02-16T07:36:00.136Z,480.00
2023-02-16T07:37:00.283Z,481.00
2023-02-16T07:38:01.217Z,482.00
2023-02-16T07:39:01.360Z,482.00
2023-02-16T07:40:00.334Z,482.00
2023-02-16T07:41:01.442Z,483.00
2023-02-16T07:42:01.451Z,481.00
2023-02-16T07:43:01.480Z,481.00
2023-02-16T07:44:01.565Z,483.00
2023-02-16T07:45:00.606Z,482.00
2023-02-16T07:46:01.719Z,481.00
2023-02-16T07:47:00.698Z,482.00
2023-02-16T07:48:01.876Z,481.00
2023-02-16T07:49:01.792Z,479.00
2023-02-16T07:50:01.835Z,481.00
2023-02-16T07:51:00.874Z,480.00
2023-02-16T07:52:01.899Z,480.00
2023-02-16T07:53:01.966Z,481.00
2023-02-16T07:54:01.057Z,482.00
2023-02-16T07:55:02.063Z,481.00
2023-02-16T07:56:02.106Z,481.00
2023-02-16T07:57:02.161Z,481.00
2023-02-16T07:58:01.207Z,483.00
2023-02-16T07:59:01.221Z,484.00
2023-02-16T08:00:01.279Z,486.00
2023-02-16T08:01:02.855Z,486.00
2023-02-16T08:02:02.477Z,484.00
2023-02-16T08:03:01.589Z,485.00
2023-02-16T08:04:02.456Z,484.00
2023-02-16T08:05:02.493Z,484.00
2023-02-16T08:06:02.531Z,482.00
2023-02-16T08:07:02.592Z,481.00
2023-02-16T08:08:01.624Z,482.00
2023-02-16T08:09:01.693Z,480.00
2023-02-16T08:10:02.761Z,482.00
2023-02-16T08:11:01.786Z,482.00
2023-02-16T08:12:02.803Z,482.00
2023-02-16T08:13:01.840Z,480.00
2023-02-16T08:14:02.911Z,481.00
2023-02-16T08:15:02.973Z,483.00
2023-02-16T08:16:03.297Z,481.00
2023-02-16T08:17:02.171Z,481.00
2023-02-16T08:18:03.105Z,481.00
2023-02-16T08:19:03.350Z,481.00
2023-02-16T08:20:03.173Z,485.00
2023-02-16T08:21:04.477Z,487.00
2023-02-16T08:22:02.243Z,487.00
2023-02-16T08:23:03.317Z,488.00
2023-02-16T08:24:02.354Z,487.00
2023-02-16T08:25:05.273Z,487.00
2023-02-16T08:26:03.762Z,483.00
2023-02-16T08:27:03.388Z,483.00
2023-02-16T08:28:03.367Z,482.00
2023-02-16T08:29:03.356Z,481.00
2023-02-16T08:30:02.444Z,481.00
2023-02-16T08:31:03.372Z,482.00
2023-02-16T08:32:03.419Z,479.00
2023-02-16T08:33:02.349Z,480.00
2023-02-16T08:34:03.321Z,482.00
2023-02-16T08:35:03.309Z,480.00
2023-02-16T08:36:02.595Z,481.00
2023-02-16T08:37:03.280Z,479.00
2023-02-16T08:38:03.274Z,477.00
2023-02-16T08:39:03.300Z,478.00
2023-02-16T08:40:03.271Z,479.00
2023-02-16T08:41:03.314Z,479.00
2023-02-16T08:42:03.290Z,479.00
2023-02-16T08:43:03.248Z,480.00
2023-02-16T08:44:03.275Z,479.00
2023-02-16T08:45:03.241Z,481.00
2023-02-16T08:46:03.609Z,482.00
2023-02-16T08:47:03.209Z,480.00
2023-02-16T08:48:03.232Z,481.00
2023-02-16T08:49:03.910Z,483.00
2023-02-16T08:50:03.318Z,485.00
2023-02-16T08:51:02.333Z,486.00
2023-02-16T08:52:03.348Z,483.00
2023-02-16T08:53:03.390Z,483.00
2023-02-16T08:54:05.849Z,485.00
2023-02-16T08:55:03.582Z,486.00
2023-02-16T08:56:02.849Z,485.00
2023-02-16T08:57:03.424Z,486.00
2023-02-16T08:58:03.388Z,486.00
2023-02-16T08:59:02.391Z,486.00
2023-02-16T09:00:02.418Z,485.00
2023-02-16T09:01:03.410Z,484.00
2023-02-16T09:02:03.404Z,483.00
2023-02-16T09:03:02.365Z,482.00
2023-02-16T09:04:03.347Z,484.00
2023-02-16T09:05:03.437Z,483.00
2023-02-16T09:06:03.689Z,483.00
2023-02-16T09:07:03.323Z,485.00
2023-02-16T09:08:03.318Z,484.00
2023-02-16T09:09:02.328Z,485.00
2023-02-16T09:10:02.318Z,486.00
2023-02-16T09:11:03.653Z,486.00
2023-02-16T09:12:03.277Z,484.00
2023-02-16T09:13:03.281Z,487.00
2023-02-16T09:14:03.308Z,486.00
2023-02-16T09:15:03.282Z,484.00
2023-02-16T09:16:03.632Z,484.00
2023-02-16T09:17:02.389Z,484.00
2023-02-16T09:18:03.276Z,484.00
2023-02-16T09:19:02.262Z,485.00
2023-02-16T09:20:03.267Z,486.00
2023-02-16T09:21:03.244Z,486.00
2023-02-16T09:22:03.228Z,485.00
2023-02-16T09:23:03.216Z,485.00
2023-02-16T09:24:03.244Z,486.00
2023-02-16T09:25:02.234Z,484.00
2023-02-16T09:26:03.528Z,484.00
2023-02-16T09:27:02.180Z,485.00
2023-02-16T09:28:03.171Z,488.00
2023-02-16T09:29:03.168Z,488.00
2023-02-16T09:30:02.234Z,487.00
2023-02-16T09:31:03.259Z,486.00
2023-02-16T09:32:03.192Z,485.00
2023-02-16T09:33:03.144Z,487.00
2023-02-16T09:34:02.132Z,486.00
2023-02-16T09:35:02.151Z,485.00
2023-02-16T09:36:03.442Z,485.00
2023-02-16T09:37:02.134Z,483.00
2023-02-16T09:38:03.108Z,483.00
2023-02-16T09:39:02.102Z,484.00
2023-02-16T09:40:03.120Z,483.00
2023-02-16T09:41:03.097Z,480.00
2023-02-16T09:42:02.115Z,479.00
2023-02-16T09:43:02.111Z,481.00
2023-02-16T09:44:03.231Z,480.00
2023-02-16T09:45:02.177Z,481.00
2023-02-16T09:46:03.745Z,480.00
2023-02-16T09:47:03.232Z,480.00
2023-02-16T09:48:03.223Z,481.00
2023-02-16T09:49:03.214Z,481.00
2023-02-16T09:50:03.232Z,480.00
2023-02-16T09:51:03.257Z,482.00
2023-02-16T09:52:03.308Z,481.00
2023-02-16T09:53:03.318Z,479.00
2023-02-16T09:54:03.311Z,481.00
2023-02-16T09:55:03.336Z,483.00
2023-02-16T09:56:03.651Z,484.00
2023-02-16T09:57:02.332Z,483.00
2023-02-16T09:58:03.384Z,482.00
2023-02-16T09:59:02.413Z,484.00
2023-02-16T10:00:03.407Z,480.00
2023-02-16T10:01:02.402Z,480.00
2023-02-16T10:02:03.406Z,482.00
2023-02-16T10:03:03.391Z,484.00
2023-02-16T10:04:02.417Z,485.00
2023-02-16T10:05:03.429Z,485.00
2023-02-16T10:06:03.844Z,485.00
2023-02-16T10:07:02.477Z,484.00
2023-02-16T10:08:02.459Z,484.00
2023-02-16T10:09:03.486Z,484.00
2023-02-16T10:10:03.505Z,484.00
2023-02-16T10:11:03.802Z,483.00
2023-02-16T10:12:03.498Z,485.00
2023-02-16T10:13:03.553Z,485.00
2023-02-16T10:14:02.526Z,484.00
2023-02-16T10:15:02.524Z,483.00
2023-02-16T10:16:03.545Z,486.00
2023-02-16T10:17:02.556Z,482.00
2023-02-16T10:18:02.545Z,485.00
2023-02-16T10:19:03.578Z,484.00
2023-02-16T10:20:02.581Z,483.00
2023-02-16T10:21:02.863Z,482.00
2023-02-16T10:22:03.590Z,483.00
2023-02-16T10:23:03.601Z,480.00
2023-02-16T10:24:03.621Z,477.00
2023-02-16T10:25:03.714Z,478.00
2023-02-16T10:26:03.645Z,476.00
2023-02-16T10:27:03.661Z,476.00
2023-02-16T10:28:03.653Z,477.00
2023-02-16T10:29:03.637Z,475.00
2023-02-16T10:30:02.675Z,475.00
2023-02-16T10:31:04.187Z,475.00
2023-02-16T10:32:03.796Z,475.00
2023-02-16T10:33:02.645Z,474.00
2023-02-16T10:34:03.617Z,476.00
2023-02-16T10:35:02.643Z,476.00
2023-02-16T10:36:03.669Z,478.00
2023-02-16T10:37:03.639Z,479.00
2023-02-16T10:38:02.635Z,482.00
2023-02-16T10:39:03.650Z,484.00
2023-02-16T10:40:02.617Z,483.00
2023-02-16T10:41:03.111Z,481.00
2023-02-16T10:42:02.630Z,482.00
2023-02-16T10:43:03.645Z,480.00
2023-02-16T10:44:03.691Z,481.00
2023-02-16T10:45:04.657Z,483.00
2023-02-16T10:46:02.779Z,483.00
2023-02-16T10:47:02.704Z,482.00
2023-02-16T10:48:03.731Z,479.00
2023-02-16T10:49:03.847Z,479.00
2023-02-16T10:50:02.837Z,481.00
2023-02-16T10:51:04.261Z,479.00
2023-02-16T10:52:02.960Z,481.00
2023-02-16T10:53:04.012Z,480.00
2023-02-16T10:54:04.273Z,481.00
2023-02-16T10:55:04.109Z,483.00
2023-02-16T10:56:04.204Z,482.00
2023-02-16T10:57:03.408Z,482.00
2023-02-16T10:58:04.351Z,483.00
2023-02-16T10:59:03.261Z,483.00
2023-02-16T11:00:03.287Z,480.00
2023-02-16T11:01:04.671Z,481.00
2023-02-16T11:02:04.364Z,483.00
2023-02-16T11:03:04.374Z,481.00
2023-02-16T11:04:03.476Z,478.00
2023-02-16T11:05:03.478Z,479.00
2023-02-16T11:06:04.886Z,481.00
2023-02-16T11:07:04.622Z,482.00
2023-02-16T11:08:03.611Z,482.00
2023-02-16T11:09:03.625Z,482.00
2023-02-16T11:10:03.725Z,482.00
2023-02-16T11:11:05.032Z,482.00
2023-02-16T11:12:04.788Z,483.00
2023-02-16T11:13:04.825Z,484.00
2023-02-16T11:14:05.996Z,483.00
2023-02-16T11:15:03.937Z,483.00
2023-02-16T11:16:05.046Z,482.00
2023-02-16T11:17:05.067Z,482.00
2023-02-16T11:18:04.090Z,481.00
2023-02-16T11:19:05.142Z,480.00
2023-02-16T11:20:05.265Z,479.00
2023-02-16T11:21:05.615Z,479.00
2023-02-16T11:22:05.414Z,480.00
2023-02-16T11:23:05.369Z,480.00
2023-02-16T11:24:05.441Z,479.00
2023-02-16T11:25:05.484Z,480.00
2023-02-16T11:26:05.559Z,480.00
2023-02-16T11:27:05.595Z,480.00
2023-02-16T11:28:05.647Z,482.00
2023-02-16T11:29:04.704Z,483.00
2023-02-16T11:30:04.835Z,484.00
2023-02-16T11:31:05.339Z,483.00
2023-02-16T11:32:05.917Z,483.00
2023-02-16T11:33:05.916Z,486.00
2023-02-16T11:34:06.339Z,487.00
2023-02-16T11:35:06.036Z,488.00
2023-02-16T11:36:06.067Z,487.00
2023-02-16T11:37:05.137Z,482.00
2023-02-16T11:38:06.254Z,483.00
2023-02-16T11:39:06.185Z,486.00
2023-02-16T11:40:06.248Z,485.00
2023-02-16T11:41:06.713Z,484.00
2023-02-16T11:42:05.370Z,486.00
2023-02-16T11:43:06.431Z,485.00
2023-02-16T11:44:06.502Z,487.00
2023-02-16T11:45:06.564Z,486.00
2023-02-16T11:46:05.820Z,486.00
2023-02-16T11:47:05.658Z,484.00
2023-02-16T11:48:05.725Z,482.00
2023-02-16T11:49:05.763Z,480.00
2023-02-16T11:50:05.803Z,477.00
2023-02-16T11:51:06.133Z,476.00
2023-02-16T11:52:06.961Z,475.00
2023-02-16T11:53:05.976Z,475.00
2023-02-16T11:54:06.043Z,476.00
2023-02-16T11:55:07.074Z,474.00
2023-02-16T11:56:07.131Z,476.00
2023-02-16T11:57:07.226Z,474.00
2023-02-16T11:58:06.290Z,477.00
2023-02-16T11:59:06.326Z,477.00
2023-02-16T12:00:07.439Z,476.00
2023-02-16T12:01:07.472Z,475.00
2023-02-16T12:02:07.561Z,476.00
2023-02-16T12:03:07.593Z,476.00
2023-02-16T12:04:06.765Z,473.00
2023-02-16T12:05:07.724Z,472.00
2023-02-16T12:06:07.767Z,470.00
2023-02-16T12:07:07.864Z,469.00
2023-02-16T12:08:07.909Z,473.00
2023-02-16T12:09:06.967Z,474.00
2023-02-16T12:10:08.042Z,476.00
2023-02-16T12:11:08.071Z,475.00
2023-02-16T12:12:08.117Z,475.00
2023-02-16T12:13:07.143Z,474.00
2023-02-16T12:14:07.210Z,475.00
2023-02-16T12:15:08.273Z,475.00
2023-02-16T12:16:09.021Z,475.00
2023-02-16T12:17:08.412Z,476.00
2023-02-16T12:18:07.507Z,476.00
2023-02-16T12:19:08.528Z,475.00
2023-02-16T12:20:08.588Z,475.00
2023-02-16T12:21:08.650Z,476.00
2023-02-16T12:22:08.723Z,475.00
2023-02-16T12:23:07.777Z,473.00
2023-02-16T12:24:08.824Z,471.00
2023-02-16T12:25:08.899Z,474.00
2023-02-16T12:26:08.988Z,474.00
2023-02-16T12:27:09.033Z,475.00
2023-02-16T12:28:09.071Z,477.00
2023-02-16T12:29:09.140Z,475.00